Hertfordshire — ZDJS5 — position and weather

sailwx.info

Track history (hours):
 
Tides and Currents Weather Stations Pressure Air Temp Water Temp Dewpoint Dewpoint Depression Visibility Wind Speed Wind Dir Waves Ship Positions

Hertfordshire

Last reported at 2015-Feb-27 16:07 UTC. Time now 2015-Feb-27 21:15 UTC.
Position N 52°40' E 002°06'.

Length 83 m; draft 4.8 m.

Type: Cargo ship. MMSI: 236563000.

Date/timePositionNaut miles runAvg speedWind from/ knotsBaromVisibWave heightAir tempDewpointWater temp
2015-Feb-27 16:07N 52°40' E 002°06'610.9
2015-Feb-27 15:33N 52°43' E 001°57'1211.6
2015-Feb-27 14:33N 52°50' E 001°41'1211.6
2015-Feb-27 13:33N 52°56' E 001°25'1111.3
2015-Feb-27 12:33N 53°01' E 001°08'3510.1
2015-Feb-27 09:07N 53°30' E 000°35'610.3
2015-Feb-27 08:34N 53°35' E 000°32'1010.3
2015-Feb-27 07:33N 53°44' E 000°23'10 9.8
2015-Feb-27 06:33N 53°53' E 000°14'10 9.6
2015-Feb-27 05:33N 54°01' E 000°06'9 9.1
2015-Feb-27 04:33N 54°09' W 000°02'9 9.2
2015-Feb-27 03:33N 54°16' W 000°12'9 9.5
2015-Feb-27 02:33N 54°23' W 000°22'10 9.7
2015-Feb-27 01:33N 54°31' W 000°33'1010.3
2015-Feb-27 00:33N 54°36' W 000°49'1010.5
2015-Feb-26 23:33N 54°40' W 001°05'4 0.7
2015-Feb-26 17:28N 54°36' W 001°09'0 0.0
2015-Feb-26 16:33N 54°36' W 001°09'0 0.0
2015-Feb-26 15:34N 54°36' W 001°09'0 0.0
2015-Feb-26 14:34N 54°36' W 001°09'0 0.0
2015-Feb-26 13:22N 54°36' W 001°09'0 0.0
2015-Feb-26 12:33N 54°36' W 001°09'0 0.0
2015-Feb-26 11:34N 54°36' W 001°09'0 0.0
2015-Feb-26 10:22N 54°36' W 001°09'0 0.0
2015-Feb-26 09:27N 54°36' W 001°09'0 0.0
2015-Feb-26 08:27N 54°36' W 001°09'0 0.0
2015-Feb-26 07:28N 54°36' W 001°09'0 0.0
2015-Feb-25 16:26N 54°36' W 001°09'0 0.0
2015-Feb-25 15:29N 54°36' W 001°09'0 0.0
2015-Feb-25 14:32N 54°36' W 001°09'0 0.0
2015-Feb-25 13:32N 54°36' W 001°09'0 0.0
2015-Feb-25 12:17N 54°36' W 001°09'0 0.0
2015-Feb-25 11:20N 54°36' W 001°09'0 0.0
2015-Feb-25 10:32N 54°36' W 001°09'0 0.0
2015-Feb-25 09:32N 54°36' W 001°09'0 0.0
2015-Feb-25 08:32N 54°36' W 001°09'0 0.0
2015-Feb-25 07:23N 54°36' W 001°09'0 0.0
2015-Feb-25 06:29N 54°36' W 001°09'0 0.0
2015-Feb-24 17:23N 54°36' W 001°09'5 6.0
2015-Feb-24 16:34N 54°41' W 001°07'1111.2
2015-Feb-24 15:33N 54°52' W 001°15'69 9.8
2015-Feb-24 08:33N 55°55' W 002°04'1211.6
2015-Feb-24 07:33N 56°00' W 002°22'1111.4
2015-Feb-24 06:33N 56°06' W 002°40'1111.1
2015-Feb-24 05:33N 56°05' W 002°60'5 4.8
2015-Feb-24 04:26N 56°07' W 003°09'0 0.0
2015-Feb-24 03:29N 56°07' W 003°09'0 0.0
2015-Feb-24 02:29N 56°07' W 003°09'0 0.0
2015-Feb-24 01:29N 56°07' W 003°09'0 0.0
2015-Feb-24 00:32N 56°07' W 003°09'0 0.0
2015-Feb-23 23:32N 56°07' W 003°09'0 0.0
2015-Feb-23 22:32N 56°07' W 003°09'0 0.0
2015-Feb-23 21:32N 56°07' W 003°09'0 0.0
2015-Feb-23 20:20N 56°07' W 003°09'0 0.0
2015-Feb-23 19:32N 56°07' W 003°09'0 0.0
2015-Feb-23 18:32N 56°07' W 003°09'0 0.0
2015-Feb-23 17:23N 56°07' W 003°09'0 0.0
2015-Feb-23 16:26N 56°07' W 003°09'0 0.0
2015-Feb-23 15:26N 56°07' W 003°09'0 0.0
2015-Feb-23 14:26N 56°07' W 003°09'0 0.0
2015-Feb-23 13:33N 56°07' W 003°09'0 0.0
2015-Feb-23 12:33N 56°07' W 003°09'0 0.0
2015-Feb-23 11:33N 56°07' W 003°09'0 0.0
2015-Feb-23 10:24N 56°07' W 003°09'0 0.0
2015-Feb-23 09:24N 56°07' W 003°09'0 0.0
2015-Feb-23 08:27N 56°07' W 003°09'0 0.0
2015-Feb-23 07:27N 56°07' W 003°09'0 0.0
2015-Feb-23 06:24N 56°07' W 003°09'0 0.0
2015-Feb-23 05:30N 56°07' W 003°09'0 0.0
2015-Feb-23 04:30N 56°07' W 003°09'0 0.0
2015-Feb-23 03:33N 56°07' W 003°09'0 0.0
2015-Feb-23 02:30N 56°07' W 003°09'0 0.0
2015-Feb-23 01:33N 56°07' W 003°09'0 0.0
2015-Feb-23 00:33N 56°07' W 003°09'0 0.0
2015-Feb-22 23:33N 56°07' W 003°09'0 0.0
2015-Feb-22 22:33N 56°07' W 003°09'0 0.0
2015-Feb-22 21:33N 56°07' W 003°09'0 0.0
2015-Feb-22 20:24N 56°07' W 003°09'0 0.0
2015-Feb-22 19:21N 56°07' W 003°09'0 0.0
2015-Feb-22 18:27N 56°07' W 003°09'0 0.0
2015-Feb-22 17:27N 56°07' W 003°09'0 0.0
2015-Feb-22 16:30N 56°07' W 003°09'0 0.0
2015-Feb-22 15:30N 56°07' W 003°09'0 0.0
2015-Feb-22 14:31N 56°07' W 003°09'0 0.0
2015-Feb-22 13:22N 56°07' W 003°09'0 0.0
2015-Feb-22 12:31N 56°07' W 003°09'0 0.0
2015-Feb-22 11:22N 56°07' W 003°09'0 0.0
2015-Feb-22 10:25N 56°07' W 003°09'0 0.0
2015-Feb-22 09:25N 56°07' W 003°09'0 0.0
2015-Feb-22 08:25N 56°07' W 003°09'0 0.0
2015-Feb-22 07:28N 56°07' W 003°09'0 0.0
2015-Feb-22 06:28N 56°07' W 003°09'0 0.0
2015-Feb-22 05:28N 56°07' W 003°09'0 0.0
2015-Feb-22 04:31N 56°07' W 003°09'1 0.5
2015-Feb-22 03:33N 56°07' W 003°09'1 0.5
2015-Feb-22 02:33N 56°06' W 003°08'0 0.0
2015-Feb-22 01:33N 56°06' W 003°08'0 0.0
2015-Feb-22 00:33N 56°06' W 003°08'0 0.0
2015-Feb-21 23:33N 56°06' W 003°08'0 0.1
2015-Feb-21 22:33N 56°06' W 003°08'0 0.0
2015-Feb-21 21:33N 56°06' W 003°08'0 0.0
2015-Feb-21 20:24N 56°06' W 003°08'0 0.0
2015-Feb-21 19:27N 56°06' W 003°08'0 0.0
2015-Feb-21 18:27N 56°06' W 003°08'0 0.0
2015-Feb-21 17:27N 56°06' W 003°08'0 0.0
2015-Feb-21 16:30N 56°06' W 003°08'0 0.0
2015-Feb-21 15:30N 56°06' W 003°08'0 0.0
2015-Feb-21 14:30N 56°06' W 003°08'0 0.1
2015-Feb-21 13:33N 56°06' W 003°08'0 0.0
2015-Feb-21 12:33N 56°06' W 003°08'0 0.1
2015-Feb-21 11:30N 56°06' W 003°08'0 0.0
2015-Feb-21 10:33N 56°06' W 003°08'0 0.0
2015-Feb-21 09:33N 56°06' W 003°08'0 0.0
2015-Feb-21 08:33N 56°06' W 003°08'0 0.0
2015-Feb-21 07:33N 56°06' W 003°08'0 0.0
2015-Feb-21 06:24N 56°06' W 003°08'0 0.0
2015-Feb-21 05:27N 56°06' W 003°08'3 3.1
2015-Feb-21 04:33N 56°06' W 003°03'10 9.6
2015-Feb-21 03:33N 56°05' W 002°46'10 9.5
2015-Feb-21 02:33N 56°02' W 002°29'10 9.9
2015-Feb-21 01:33N 55°58' W 002°14'6510.6
2015-Feb-20 19:26N 55°03' W 001°12'8 9.7
2015-Feb-20 18:33N 54°56' W 001°04'9 9.0
2015-Feb-20 17:33N 54°48' W 000°56'8 8.3
2015-Feb-20 16:33N 54°42' W 000°46'8 8.0
2015-Feb-20 15:33N 54°36' W 000°37'8 8.0
2015-Feb-20 14:34N 54°30' W 000°29'9 9.0
2015-Feb-20 13:33N 54°23' W 000°20'1010.1
2015-Feb-20 12:33N 54°14' W 000°10'1111.2
2015-Feb-20 11:33N 54°05' E 000°01'1211.7
2015-Feb-20 10:33N 53°55' E 000°12'1211.9
2015-Feb-20 09:33N 53°45' E 000°23'1211.5
2015-Feb-20 08:33N 53°35' E 000°32'10 9.9
2015-Feb-20 07:30N 53°25' E 000°37'27 8.3
2015-Feb-20 04:17N 53°04' E 001°04'810.8
2015-Feb-20 03:34N 52°60' E 001°15'1212.2
2015-Feb-20 02:33N 52°54' E 001°33'1312.8
2015-Feb-20 01:33N 52°47' E 001°51'1110.6
2015-Feb-20 00:33N 52°37' E 001°53'1010.5
2015-Feb-19 23:33N 52°27' E 001°49'11 8.7
2015-Feb-19 22:20N 52°16' E 001°45'6 7.6
2015-Feb-19 21:33N 52°11' E 001°43'7 6.8
2015-Feb-19 20:34N 52°04' E 001°39'8 7.6
2015-Feb-19 19:34N 51°57' E 001°34'8 8.4
2015-Feb-19 18:33N 51°50' E 001°29'1110.7
2015-Feb-19 17:34N 51°41' E 001°19'1211.6
2015-Feb-19 16:33N 51°33' E 001°05'1111.4
2015-Feb-19 15:34N 51°29' E 000°47'1212.4
2015-Feb-19 14:34N 51°29' E 000°28'5 4.7
2015-Feb-19 13:31N 51°28' E 000°20'0 0.0
2015-Feb-19 12:31N 51°28' E 000°20'0 0.0
2015-Feb-19 11:31N 51°28' E 000°20'0 0.0
2015-Feb-19 10:34N 51°28' E 000°20'0 0.0
2015-Feb-19 09:32N 51°28' E 000°20'0 0.0
2015-Feb-19 08:32N 51°28' E 000°20'0 0.0
2015-Feb-19 07:34N 51°28' E 000°20'0 0.0
2015-Feb-19 06:34N 51°28' E 000°20'0 0.0
2015-Feb-19 05:34N 51°28' E 000°20'0 0.0
2015-Feb-19 04:31N 51°28' E 000°20'0 0.0
2015-Feb-19 03:31N 51°28' E 000°20'0 0.0
2015-Feb-19 02:32N 51°28' E 000°20'0 0.0
2015-Feb-19 01:32N 51°28' E 000°20'0 0.0
2015-Feb-19 00:33N 51°28' E 000°20'5 4.5
2015-Feb-18 23:33N 51°28' E 000°27'1111.0
2015-Feb-18 22:34N 51°30' E 000°44'7 7.0
2015-Feb-18 21:33N 51°30' E 000°56'5 5.5
2015-Feb-18 20:33N 51°30' E 001°04'9 9.2
2015-Feb-18 19:33N 51°29' E 001°19'8 8.2
2015-Feb-18 18:33N 51°25' E 001°31'8 8.0
2015-Feb-18 17:33N 51°18' E 001°36'9 9.4
2015-Feb-18 16:34N 51°09' E 001°39'1010.2
2015-Feb-18 15:33N 50°59' E 001°32'  
Track history (hours):
 
Tides and Currents Weather Stations Pressure Air Temp Water Temp Dewpoint Dewpoint Depression Visibility Wind Speed Wind Dir Waves Ship Positions

Hertfordshire

Last reported at 2015-Feb-27 16:07 UTC. Time now 2015-Feb-27 21:15 UTC.
Position N 52°40' E 002°06'.

Length 83 m; draft 4.8 m.

Type: Cargo ship. MMSI: 236563000.

Date/timePositionNaut miles runAvg speedWind from/ knotsBaromVisibWave heightAir tempDewpointWater temp
2015-Feb-27 16:07N 52°40' E 002°06'610.9
2015-Feb-27 15:33N 52°43' E 001°57'1211.6
2015-Feb-27 14:33N 52°50' E 001°41'1211.6
2015-Feb-27 13:33N 52°56' E 001°25'1111.3
2015-Feb-27 12:33N 53°01' E 001°08'3510.1
2015-Feb-27 09:07N 53°30' E 000°35'610.3
2015-Feb-27 08:34N 53°35' E 000°32'1010.3
2015-Feb-27 07:33N 53°44' E 000°23'10 9.8
2015-Feb-27 06:33N 53°53' E 000°14'10 9.6
2015-Feb-27 05:33N 54°01' E 000°06'9 9.1
2015-Feb-27 04:33N 54°09' W 000°02'9 9.2
2015-Feb-27 03:33N 54°16' W 000°12'9 9.5
2015-Feb-27 02:33N 54°23' W 000°22'10 9.7
2015-Feb-27 01:33N 54°31' W 000°33'1010.3
2015-Feb-27 00:33N 54°36' W 000°49'1010.5
2015-Feb-26 23:33N 54°40' W 001°05'4 0.7
2015-Feb-26 17:28N 54°36' W 001°09'0 0.0
2015-Feb-26 16:33N 54°36' W 001°09'0 0.0
2015-Feb-26 15:34N 54°36' W 001°09'0 0.0
2015-Feb-26 14:34N 54°36' W 001°09'0 0.0
2015-Feb-26 13:22N 54°36' W 001°09'0 0.0
2015-Feb-26 12:33N 54°36' W 001°09'0 0.0
2015-Feb-26 11:34N 54°36' W 001°09'0 0.0
2015-Feb-26 10:22N 54°36' W 001°09'0 0.0
2015-Feb-26 09:27N 54°36' W 001°09'0 0.0
2015-Feb-26 08:27N 54°36' W 001°09'0 0.0
2015-Feb-26 07:28N 54°36' W 001°09'0 0.0
2015-Feb-25 16:26N 54°36' W 001°09'0 0.0
2015-Feb-25 15:29N 54°36' W 001°09'0 0.0
2015-Feb-25 14:32N 54°36' W 001°09'0 0.0
2015-Feb-25 13:32N 54°36' W 001°09'0 0.0
2015-Feb-25 12:17N 54°36' W 001°09'0 0.0
2015-Feb-25 11:20N 54°36' W 001°09'0 0.0
2015-Feb-25 10:32N 54°36' W 001°09'0 0.0
2015-Feb-25 09:32N 54°36' W 001°09'0 0.0
2015-Feb-25 08:32N 54°36' W 001°09'0 0.0
2015-Feb-25 07:23N 54°36' W 001°09'0 0.0
2015-Feb-25 06:29N 54°36' W 001°09'0 0.0
2015-Feb-24 17:23N 54°36' W 001°09'5 6.0
2015-Feb-24 16:34N 54°41' W 001°07'1111.2
2015-Feb-24 15:33N 54°52' W 001°15'69 9.8
2015-Feb-24 08:33N 55°55' W 002°04'1211.6
2015-Feb-24 07:33N 56°00' W 002°22'1111.4
2015-Feb-24 06:33N 56°06' W 002°40'1111.1
2015-Feb-24 05:33N 56°05' W 002°60'5 4.8
2015-Feb-24 04:26N 56°07' W 003°09'0 0.0
2015-Feb-24 03:29N 56°07' W 003°09'0 0.0
2015-Feb-24 02:29N 56°07' W 003°09'0 0.0
2015-Feb-24 01:29N 56°07' W 003°09'0 0.0
2015-Feb-24 00:32N 56°07' W 003°09'0 0.0
2015-Feb-23 23:32N 56°07' W 003°09'0 0.0
2015-Feb-23 22:32N 56°07' W 003°09'0 0.0
2015-Feb-23 21:32N 56°07' W 003°09'0 0.0
2015-Feb-23 20:20N 56°07' W 003°09'0 0.0
2015-Feb-23 19:32N 56°07' W 003°09'0 0.0
2015-Feb-23 18:32N 56°07' W 003°09'0 0.0
2015-Feb-23 17:23N 56°07' W 003°09'0 0.0
2015-Feb-23 16:26N 56°07' W 003°09'0 0.0
2015-Feb-23 15:26N 56°07' W 003°09'0 0.0
2015-Feb-23 14:26N 56°07' W 003°09'0 0.0
2015-Feb-23 13:33N 56°07' W 003°09'0 0.0
2015-Feb-23 12:33N 56°07' W 003°09'0 0.0
2015-Feb-23 11:33N 56°07' W 003°09'0 0.0
2015-Feb-23 10:24N 56°07' W 003°09'0 0.0
2015-Feb-23 09:24N 56°07' W 003°09'0 0.0
2015-Feb-23 08:27N 56°07' W 003°09'0 0.0
2015-Feb-23 07:27N 56°07' W 003°09'0 0.0
2015-Feb-23 06:24N 56°07' W 003°09'0 0.0
2015-Feb-23 05:30N 56°07' W 003°09'0 0.0
2015-Feb-23 04:30N 56°07' W 003°09'0 0.0
2015-Feb-23 03:33N 56°07' W 003°09'0 0.0
2015-Feb-23 02:30N 56°07' W 003°09'0 0.0
2015-Feb-23 01:33N 56°07' W 003°09'0 0.0
2015-Feb-23 00:33N 56°07' W 003°09'0 0.0
2015-Feb-22 23:33N 56°07' W 003°09'0 0.0
2015-Feb-22 22:33N 56°07' W 003°09'0 0.0
2015-Feb-22 21:33N 56°07' W 003°09'0 0.0
2015-Feb-22 20:24N 56°07' W 003°09'0 0.0
2015-Feb-22 19:21N 56°07' W 003°09'0 0.0
2015-Feb-22 18:27N 56°07' W 003°09'0 0.0
2015-Feb-22 17:27N 56°07' W 003°09'0 0.0
2015-Feb-22 16:30N 56°07' W 003°09'0 0.0
2015-Feb-22 15:30N 56°07' W 003°09'0 0.0
2015-Feb-22 14:31N 56°07' W 003°09'0 0.0
2015-Feb-22 13:22N 56°07' W 003°09'0 0.0
2015-Feb-22 12:31N 56°07' W 003°09'0 0.0
2015-Feb-22 11:22N 56°07' W 003°09'0 0.0
2015-Feb-22 10:25N 56°07' W 003°09'0 0.0
2015-Feb-22 09:25N 56°07' W 003°09'0 0.0
2015-Feb-22 08:25N 56°07' W 003°09'0 0.0
2015-Feb-22 07:28N 56°07' W 003°09'0 0.0
2015-Feb-22 06:28N 56°07' W 003°09'0 0.0
2015-Feb-22 05:28N 56°07' W 003°09'0 0.0
2015-Feb-22 04:31N 56°07' W 003°09'1 0.5
2015-Feb-22 03:33N 56°07' W 003°09'1 0.5
2015-Feb-22 02:33N 56°06' W 003°08'0 0.0
2015-Feb-22 01:33N 56°06' W 003°08'0 0.0
2015-Feb-22 00:33N 56°06' W 003°08'0 0.0
2015-Feb-21 23:33N 56°06' W 003°08'0 0.1
2015-Feb-21 22:33N 56°06' W 003°08'0 0.0
2015-Feb-21 21:33N 56°06' W 003°08'0 0.0
2015-Feb-21 20:24N 56°06' W 003°08'0 0.0
2015-Feb-21 19:27N 56°06' W 003°08'0 0.0
2015-Feb-21 18:27N 56°06' W 003°08'0 0.0
2015-Feb-21 17:27N 56°06' W 003°08'0 0.0
2015-Feb-21 16:30N 56°06' W 003°08'0 0.0
2015-Feb-21 15:30N 56°06' W 003°08'0 0.0
2015-Feb-21 14:30N 56°06' W 003°08'0 0.1
2015-Feb-21 13:33N 56°06' W 003°08'0 0.0
2015-Feb-21 12:33N 56°06' W 003°08'0 0.1
2015-Feb-21 11:30N 56°06' W 003°08'0 0.0
2015-Feb-21 10:33N 56°06' W 003°08'0 0.0
2015-Feb-21 09:33N 56°06' W 003°08'0 0.0
2015-Feb-21 08:33N 56°06' W 003°08'0 0.0
2015-Feb-21 07:33N 56°06' W 003°08'0 0.0
2015-Feb-21 06:24N 56°06' W 003°08'0 0.0
2015-Feb-21 05:27N 56°06' W 003°08'3 3.1
2015-Feb-21 04:33N 56°06' W 003°03'10 9.6
2015-Feb-21 03:33N 56°05' W 002°46'10 9.5
2015-Feb-21 02:33N 56°02' W 002°29'10 9.9
2015-Feb-21 01:33N 55°58' W 002°14'6510.6
2015-Feb-20 19:26N 55°03' W 001°12'8 9.7
2015-Feb-20 18:33N 54°56' W 001°04'9 9.0
2015-Feb-20 17:33N 54°48' W 000°56'8 8.3
2015-Feb-20 16:33N 54°42' W 000°46'8 8.0
2015-Feb-20 15:33N 54°36' W 000°37'8 8.0
2015-Feb-20 14:34N 54°30' W 000°29'9 9.0
2015-Feb-20 13:33N 54°23' W 000°20'1010.1
2015-Feb-20 12:33N 54°14' W 000°10'1111.2
2015-Feb-20 11:33N 54°05' E 000°01'1211.7
2015-Feb-20 10:33N 53°55' E 000°12'1211.9
2015-Feb-20 09:33N 53°45' E 000°23'1211.5
2015-Feb-20 08:33N 53°35' E 000°32'10 9.9
2015-Feb-20 07:30N 53°25' E 000°37'27 8.3
2015-Feb-20 04:17N 53°04' E 001°04'810.8
2015-Feb-20 03:34N 52°60' E 001°15'1212.2
2015-Feb-20 02:33N 52°54' E 001°33'1312.8
2015-Feb-20 01:33N 52°47' E 001°51'1110.6
2015-Feb-20 00:33N 52°37' E 001°53'1010.5
2015-Feb-19 23:33N 52°27' E 001°49'11 8.7
2015-Feb-19 22:20N 52°16' E 001°45'6 7.6
2015-Feb-19 21:33N 52°11' E 001°43'7 6.8
2015-Feb-19 20:34N 52°04' E 001°39'8 7.6
2015-Feb-19 19:34N 51°57' E 001°34'8 8.4
2015-Feb-19 18:33N 51°50' E 001°29'1110.7
2015-Feb-19 17:34N 51°41' E 001°19'1211.6
2015-Feb-19 16:33N 51°33' E 001°05'1111.4
2015-Feb-19 15:34N 51°29' E 000°47'1212.4
2015-Feb-19 14:34N 51°29' E 000°28'5 4.7
2015-Feb-19 13:31N 51°28' E 000°20'0 0.0
2015-Feb-19 12:31N 51°28' E 000°20'0 0.0
2015-Feb-19 11:31N 51°28' E 000°20'0 0.0
2015-Feb-19 10:34N 51°28' E 000°20'0 0.0
2015-Feb-19 09:32N 51°28' E 000°20'0 0.0
2015-Feb-19 08:32N 51°28' E 000°20'0 0.0
2015-Feb-19 07:34N 51°28' E 000°20'0 0.0
2015-Feb-19 06:34N 51°28' E 000°20'0 0.0
2015-Feb-19 05:34N 51°28' E 000°20'0 0.0
2015-Feb-19 04:31N 51°28' E 000°20'0 0.0
2015-Feb-19 03:31N 51°28' E 000°20'0 0.0
2015-Feb-19 02:32N 51°28' E 000°20'0 0.0
2015-Feb-19 01:32N 51°28' E 000°20'0 0.0
2015-Feb-19 00:33N 51°28' E 000°20'5 4.5
2015-Feb-18 23:33N 51°28' E 000°27'1111.0
2015-Feb-18 22:34N 51°30' E 000°44'7 7.0
2015-Feb-18 21:33N 51°30' E 000°56'5 5.5
2015-Feb-18 20:33N 51°30' E 001°04'9 9.2
2015-Feb-18 19:33N 51°29' E 001°19'8 8.2
2015-Feb-18 18:33N 51°25' E 001°31'8 8.0
2015-Feb-18 17:33N 51°18' E 001°36'9 9.4
2015-Feb-18 16:34N 51°09' E 001°39'1010.2
2015-Feb-18 15:33N 50°59' E 001°32'  

Dump ship's entire track history